createdAt,value
2023-02-21T00:00:53.690Z,9.62
2023-02-21T00:03:39.195Z,9.44
2023-02-21T00:06:27.570Z,9.26
2023-02-21T00:09:12.837Z,9.58
2023-02-21T00:12:02.100Z,8.98
2023-02-21T00:14:48.151Z,8.86
2023-02-21T00:17:33.355Z,8.91
2023-02-21T00:20:18.945Z,8.74
2023-02-21T00:23:05.421Z,9.20
2023-02-21T00:25:50.829Z,9.48
2023-02-21T00:28:37.066Z,9.43
2023-02-21T00:31:24.050Z,9.47
2023-02-21T00:34:10.343Z,9.61
2023-02-21T00:36:55.859Z,9.56
2023-02-21T00:39:42.484Z,9.67
2023-02-21T00:42:28.008Z,9.62
2023-02-21T00:45:13.596Z,9.80
2023-02-21T00:47:58.788Z,9.60
2023-02-21T00:50:44.039Z,9.42
2023-02-21T00:53:29.387Z,9.53
2023-02-21T00:56:14.691Z,9.57
2023-02-21T00:58:59.957Z,9.56
2023-02-21T01:01:45.197Z,9.56
2023-02-21T01:04:30.868Z,9.32
2023-02-21T01:07:16.181Z,9.10
2023-02-21T01:10:01.886Z,9.15
2023-02-21T01:12:47.491Z,8.88
2023-02-21T01:15:33.961Z,9.04
2023-02-21T01:18:19.483Z,9.16
2023-02-21T01:21:04.883Z,9.46
2023-02-21T01:23:53.085Z,9.35
2023-02-21T01:26:38.776Z,9.47
2023-02-21T01:29:24.283Z,9.46
2023-02-21T01:32:09.854Z,9.57
2023-02-21T01:34:57.854Z,9.61
2023-02-21T01:37:43.188Z,9.27
2023-02-21T01:40:33.608Z,9.03
2023-02-21T01:43:20.594Z,8.48
2023-02-21T01:46:08.485Z,8.22
2023-02-21T01:48:55.197Z,8.41
2023-02-21T01:51:45.330Z,8.96
2023-02-21T01:54:30.986Z,8.80
2023-02-21T01:57:20.448Z,8.70
2023-02-21T02:00:08.175Z,8.78
2023-02-21T02:03:11.857Z,9.05
2023-02-21T02:05:58.879Z,8.96
2023-02-21T02:08:48.540Z,9.14
2023-02-21T02:11:42.603Z,9.43
2023-02-21T02:14:24.740Z,9.46
2023-02-21T02:17:16.836Z,9.34
2023-02-21T02:20:21.619Z,9.50
2023-02-21T02:23:00.305Z,9.52
2023-02-21T02:25:57.439Z,9.60
2023-02-21T02:28:38.820Z,9.49
2023-02-21T02:31:39.998Z,9.49
2023-02-21T02:34:10.684Z,9.08
2023-02-21T02:36:49.313Z,9.25
2023-02-21T02:39:29.769Z,9.44
2023-02-21T02:42:02.563Z,9.46
2023-02-21T02:44:39.604Z,9.43
2023-02-21T02:47:14.932Z,9.37
2023-02-21T02:49:44.558Z,9.28
2023-02-21T02:52:11.607Z,9.46
2023-02-21T02:54:38.564Z,9.44
2023-02-21T02:57:10.804Z,9.28
2023-02-21T02:59:42.669Z,9.31
2023-02-21T03:02:48.265Z,9.20
2023-02-21T03:05:29.321Z,8.18
2023-02-21T03:08:11.951Z,8.35
2023-02-21T03:10:54.428Z,8.05
2023-02-21T03:13:42.834Z,8.01
2023-02-21T03:16:34.262Z,8.43
2023-02-21T03:19:10.146Z,7.78
2023-02-21T03:22:10.944Z,8.05
2023-02-21T03:24:41.576Z,8.49
2023-02-21T03:27:10.280Z,8.04
2023-02-21T03:29:47.075Z,7.98
2023-02-21T03:32:22.521Z,7.87
2023-02-21T03:34:49.446Z,8.05
2023-02-21T03:37:40.528Z,8.07
2023-02-21T03:40:32.359Z,8.70
2023-02-21T03:43:03.612Z,8.26
2023-02-21T03:45:35.365Z,8.65
2023-02-21T03:48:17.694Z,8.80
2023-02-21T03:50:51.360Z,8.80
2023-02-21T03:53:19.484Z,8.86
2023-02-21T03:55:46.593Z,8.90
2023-02-21T03:58:18.958Z,8.89
2023-02-21T04:00:45.959Z,8.94
2023-02-21T04:03:14.088Z,9.12
2023-02-21T04:06:01.222Z,8.98
2023-02-21T04:08:28.375Z,8.95
2023-02-21T04:10:55.375Z,8.95
2023-02-21T04:13:25.990Z,9.06
2023-02-21T04:15:54.906Z,9.27
2023-02-21T04:18:22.175Z,8.95
2023-02-21T04:20:52.318Z,8.96
2023-02-21T04:23:21.234Z,8.99
2023-02-21T04:25:48.256Z,8.69
2023-02-21T04:28:21.461Z,8.81
2023-02-21T04:30:48.929Z,8.59
2023-02-21T04:33:16.376Z,8.69
2023-02-21T04:35:43.308Z,8.67
2023-02-21T04:38:18.499Z,8.84
2023-02-21T04:40:45.369Z,8.45
2023-02-21T04:43:12.064Z,8.64
2023-02-21T04:45:39.031Z,8.63
2023-02-21T04:48:06.033Z,8.66
2023-02-21T04:50:33.011Z,8.44
2023-02-21T04:52:59.950Z,8.56
2023-02-21T04:55:26.674Z,8.74
2023-02-21T04:57:53.468Z,8.81
2023-02-21T05:03:04.461Z,8.46
2023-02-21T05:05:31.145Z,8.51
2023-02-21T05:07:58.035Z,8.69
2023-02-21T05:10:31.089Z,8.76
2023-02-21T05:13:03.688Z,8.90
2023-02-21T05:15:30.535Z,8.65
2023-02-21T05:17:57.167Z,8.60
2023-02-21T05:20:24.076Z,8.85
2023-02-21T05:22:50.858Z,8.71
2023-02-21T05:25:19.902Z,8.84
2023-02-21T05:27:47.231Z,8.78
2023-02-21T05:30:18.012Z,8.72
2023-02-21T05:32:44.855Z,8.67
2023-02-21T05:35:13.907Z,8.72
2023-02-21T05:37:40.758Z,8.81
2023-02-21T05:40:10.428Z,8.52
2023-02-21T05:42:37.294Z,8.73
2023-02-21T05:45:06.894Z,8.61
2023-02-21T05:47:35.003Z,8.55
2023-02-21T05:50:02.087Z,8.84
2023-02-21T05:52:28.920Z,8.86
2023-02-21T05:54:55.785Z,8.61
2023-02-21T05:57:22.732Z,8.66
2023-02-21T05:59:49.396Z,8.74
2023-02-21T06:02:16.231Z,8.94
2023-02-21T06:04:43.013Z,9.30
2023-02-21T06:07:10.057Z,9.37
2023-02-21T06:09:36.754Z,9.39
2023-02-21T06:12:03.669Z,9.15
2023-02-21T06:14:30.375Z,9.59
2023-02-21T06:16:57.180Z,9.71
2023-02-21T06:19:23.895Z,9.70
2023-02-21T06:21:50.703Z,9.83
2023-02-21T06:24:17.456Z,9.79
2023-02-21T06:26:45.060Z,9.43
2023-02-21T06:29:12.066Z,9.37
2023-02-21T06:31:39.062Z,9.31
2023-02-21T06:34:06.039Z,8.97
2023-02-21T06:36:32.795Z,9.30
2023-02-21T06:38:59.749Z,9.49
2023-02-21T06:41:29.965Z,9.30
2023-02-21T06:43:58.258Z,10.08
2023-02-21T06:46:29.018Z,10.49
2023-02-21T06:48:55.941Z,10.54
2023-02-21T06:51:29.253Z,10.66
2023-02-21T06:53:57.873Z,10.01
2023-02-21T06:56:24.910Z,10.65
2023-02-21T06:58:53.401Z,10.35
2023-02-21T07:01:20.326Z,11.24
2023-02-21T07:03:47.760Z,11.60
2023-02-21T07:06:15.137Z,11.82
2023-02-21T07:08:42.273Z,11.90
2023-02-21T07:11:09.834Z,12.02
2023-02-21T07:13:37.479Z,12.14
2023-02-21T07:16:04.652Z,12.17
2023-02-21T07:18:31.456Z,12.30
2023-02-21T07:20:58.578Z,12.11
2023-02-21T07:23:25.657Z,12.30
2023-02-21T07:25:52.618Z,12.28
2023-02-21T07:28:19.533Z,12.21
2023-02-21T07:30:47.205Z,12.33
2023-02-21T07:33:14.178Z,12.39
2023-02-21T07:35:40.863Z,12.63
2023-02-21T07:38:07.579Z,12.55
2023-02-21T07:40:34.308Z,12.69
2023-02-21T07:43:02.406Z,12.87
2023-02-21T07:45:29.304Z,12.92
2023-02-21T07:47:55.952Z,12.68
2023-02-21T07:50:23.760Z,12.65
2023-02-21T07:52:50.751Z,13.00
2023-02-21T07:55:17.670Z,13.30
2023-02-21T07:57:45.455Z,13.42
2023-02-21T08:00:12.634Z,13.31
2023-02-21T08:02:49.529Z,13.19
2023-02-21T08:05:17.641Z,13.36
2023-02-21T08:07:44.668Z,13.50
2023-02-21T08:10:12.701Z,13.55
2023-02-21T08:12:39.425Z,13.35
2023-02-21T08:15:06.612Z,13.56
2023-02-21T08:17:33.339Z,13.50
2023-02-21T08:20:00.085Z,13.59
2023-02-21T08:22:27.019Z,13.59
2023-02-21T08:24:53.853Z,13.50
2023-02-21T08:27:20.582Z,13.53
2023-02-21T08:29:50.134Z,13.46
2023-02-21T08:32:19.018Z,13.85
2023-02-21T08:34:46.813Z,13.95
2023-02-21T08:37:23.346Z,13.98
2023-02-21T08:39:52.257Z,14.20
2023-02-21T08:42:20.089Z,14.31
2023-02-21T08:44:47.418Z,14.41
2023-02-21T08:47:16.545Z,14.50
2023-02-21T08:49:47.704Z,14.53
2023-02-21T08:52:17.059Z,14.40
2023-02-21T08:54:44.741Z,14.76
2023-02-21T08:57:12.491Z,14.83
2023-02-21T08:59:44.999Z,14.79
2023-02-21T09:02:17.390Z,14.76
2023-02-21T09:04:47.366Z,14.70
2023-02-21T09:07:17.227Z,15.04
2023-02-21T09:09:44.223Z,15.08
2023-02-21T09:12:11.829Z,15.15
2023-02-21T09:14:41.445Z,15.33
2023-02-21T09:17:12.945Z,15.49
2023-02-21T09:19:40.284Z,15.64
2023-02-21T09:22:09.319Z,16.01
2023-02-21T09:24:36.723Z,15.80
2023-02-21T09:27:03.741Z,15.67
2023-02-21T09:29:45.023Z,15.68
2023-02-21T09:32:13.187Z,15.45
2023-02-21T09:34:40.049Z,15.45
2023-02-21T09:37:07.114Z,16.25
2023-02-21T09:39:33.925Z,16.67
2023-02-21T09:42:00.832Z,16.74
2023-02-21T09:44:29.576Z,17.05
2023-02-21T09:47:07.605Z,17.28
2023-02-21T09:49:39.111Z,17.76
2023-02-21T09:52:15.961Z,17.52
2023-02-21T09:54:50.803Z,18.07
2023-02-21T09:57:18.909Z,18.41
2023-02-21T09:59:46.244Z,17.83
2023-02-21T10:02:35.781Z,17.78
2023-02-21T10:05:30.441Z,18.74
2023-02-21T10:08:05.078Z,19.06
2023-02-21T10:10:52.372Z,19.20
2023-02-21T10:13:51.933Z,18.58
2023-02-21T10:16:27.047Z,18.94
2023-02-21T10:18:53.787Z,19.04
2023-02-21T10:21:33.552Z,19.27
2023-02-21T10:24:10.165Z,19.15
2023-02-21T10:26:41.194Z,19.55
2023-02-21T10:29:22.448Z,20.26
2023-02-21T10:31:55.200Z,20.58
2023-02-21T10:34:28.023Z,20.46
2023-02-21T10:37:15.491Z,20.45
2023-02-21T10:39:51.603Z,20.46
2023-02-21T10:42:44.949Z,20.50
2023-02-21T10:45:16.235Z,20.80
2023-02-21T10:48:07.631Z,21.05
2023-02-21T10:50:45.152Z,21.22
2023-02-21T10:53:47.848Z,20.18
2023-02-21T10:56:20.379Z,20.36
2023-02-21T10:58:51.874Z,20.81
2023-02-21T11:01:30.592Z,21.13
2023-02-21T11:04:24.267Z,21.14
2023-02-21T11:06:58.297Z,21.15
2023-02-21T11:09:27.892Z,21.18
2023-02-21T11:12:18.180Z,21.14
2023-02-21T11:14:50.884Z,21.22
2023-02-21T11:17:24.979Z,21.61
2023-02-21T11:20:06.551Z,21.70
2023-02-21T11:22:39.531Z,21.75
2023-02-21T11:25:20.136Z,21.45
2023-02-21T11:28:01.129Z,21.87
2023-02-21T11:30:29.061Z,21.34
2023-02-21T11:32:58.002Z,21.58
2023-02-21T11:35:29.297Z,21.97
2023-02-21T11:38:03.827Z,21.71
2023-02-21T11:40:44.166Z,21.30
2023-02-21T11:43:25.917Z,21.08
2023-02-21T11:46:00.191Z,21.69
2023-02-21T11:48:32.955Z,21.52
2023-02-21T11:51:07.463Z,21.50
2023-02-21T11:53:40.865Z,21.65
2023-02-21T11:56:16.615Z,21.87
2023-02-21T11:58:49.181Z,22.19
2023-02-21T12:01:24.521Z,22.43
2023-02-21T12:04:01.537Z,22.37
2023-02-21T12:06:40.136Z,22.58
2023-02-21T12:09:25.148Z,22.58
2023-02-21T12:12:15.419Z,22.14
2023-02-21T12:14:54.027Z,22.56
2023-02-21T12:17:46.640Z,23.11
2023-02-21T12:20:38.596Z,21.97
2023-02-21T12:23:14.087Z,22.40
2023-02-21T12:26:13.278Z,22.84
2023-02-21T12:28:48.993Z,23.35
2023-02-21T12:31:53.824Z,23.27
2023-02-21T12:34:59.397Z,23.47
2023-02-21T12:37:47.210Z,23.89
2023-02-21T12:40:34.595Z,24.38
2023-02-21T12:43:19.703Z,24.63
2023-02-21T12:45:54.990Z,24.79
2023-02-21T12:48:37.924Z,24.91
2023-02-21T12:51:20.326Z,25.61
2023-02-21T12:54:04.433Z,25.66
2023-02-21T12:56:40.201Z,25.68
2023-02-21T12:59:33.542Z,24.86
2023-02-21T13:02:09.584Z,25.26
2023-02-21T13:04:47.182Z,24.84
2023-02-21T13:07:25.626Z,25.73
2023-02-21T13:09:57.846Z,26.64
2023-02-21T13:12:36.018Z,26.40
2023-02-21T13:15:21.996Z,25.34
2023-02-21T13:17:58.883Z,24.50
2023-02-21T13:20:32.145Z,25.50
2023-02-21T13:23:39.820Z,25.69
2023-02-21T13:26:40.976Z,25.21
2023-02-21T13:29:19.756Z,25.25
2023-02-21T13:31:47.823Z,26.26
2023-02-21T13:34:23.735Z,26.21
2023-02-21T13:36:51.871Z,26.02
2023-02-21T13:39:22.261Z,25.78
2023-02-21T13:41:53.319Z,27.08
2023-02-21T13:44:28.481Z,27.90
2023-02-21T13:47:13.912Z,28.23
2023-02-21T13:49:52.756Z,28.12
2023-02-21T13:52:19.719Z,27.67
2023-02-21T13:55:20.448Z,28.55
2023-02-21T13:58:00.442Z,29.39
2023-02-21T14:00:27.672Z,29.47
2023-02-21T14:03:07.041Z,29.79
2023-02-21T14:05:47.001Z,29.16
2023-02-21T14:08:50.836Z,29.63
2023-02-21T14:11:23.856Z,30.07
2023-02-21T14:13:54.585Z,28.87
2023-02-21T14:16:48.212Z,28.46
2023-02-21T14:19:22.309Z,28.08
2023-02-21T14:21:56.638Z,27.55
2023-02-21T14:24:27.133Z,26.79
2023-02-21T14:26:57.866Z,26.75
2023-02-21T14:29:29.976Z,26.30
2023-02-21T14:32:16.789Z,25.75
2023-02-21T14:34:49.886Z,26.12
2023-02-21T14:37:39.206Z,26.46
2023-02-21T14:40:12.079Z,26.10
2023-02-21T14:46:48.815Z,26.75
2023-02-21T14:49:43.516Z,26.98
2023-02-21T14:52:23.570Z,25.95
2023-02-21T14:55:08.672Z,25.90
2023-02-21T14:57:44.737Z,25.81
2023-02-21T15:00:40.634Z,25.16
2023-02-21T15:03:07.454Z,25.04
2023-02-21T15:06:03.752Z,24.83
2023-02-21T15:08:41.769Z,24.47
2023-02-21T15:11:21.244Z,24.15
2023-02-21T15:13:48.402Z,23.91
2023-02-21T15:16:16.683Z,23.53
2023-02-21T15:19:01.644Z,23.45
2023-02-21T15:21:28.700Z,23.30
2023-02-21T15:24:13.031Z,23.22
2023-02-21T15:26:40.002Z,22.97
2023-02-21T15:29:09.942Z,22.59
2023-02-21T15:31:43.447Z,22.49
2023-02-21T15:34:20.287Z,22.61
2023-02-21T15:37:00.398Z,22.55
2023-02-21T15:39:33.297Z,22.63
2023-02-21T15:42:05.411Z,22.43
2023-02-21T15:44:43.288Z,22.39
2023-02-21T15:47:15.694Z,22.30
2023-02-21T15:49:59.883Z,22.18
2023-02-21T15:52:36.841Z,22.13
2023-02-21T15:55:29.648Z,22.11
2023-02-21T15:58:27.021Z,22.01
2023-02-21T16:01:23.004Z,22.01
2023-02-21T16:03:49.883Z,21.99
2023-02-21T16:06:28.191Z,21.74
2023-02-21T16:09:06.713Z,21.73
2023-02-21T16:11:54.365Z,21.64
2023-02-21T16:14:46.233Z,21.78
2023-02-21T16:17:12.949Z,21.56
2023-02-21T16:19:47.837Z,21.10
2023-02-21T16:22:29.834Z,21.35
2023-02-21T16:25:16.297Z,21.25
2023-02-21T16:27:47.087Z,21.49
2023-02-21T16:30:31.591Z,21.45
2023-02-21T16:33:04.332Z,21.00
2023-02-21T16:35:32.738Z,21.15
2023-02-21T16:38:00.664Z,20.61
2023-02-21T16:40:30.531Z,20.77
2023-02-21T16:42:58.892Z,20.68
2023-02-21T16:45:25.767Z,20.62
2023-02-21T16:48:05.864Z,20.61
2023-02-21T16:50:38.347Z,20.80
2023-02-21T16:53:05.786Z,20.16
2023-02-21T16:55:32.948Z,19.78
2023-02-21T16:58:03.709Z,19.71
2023-02-21T17:00:32.073Z,19.49
2023-02-21T17:02:59.036Z,19.12
2023-02-21T17:05:26.432Z,18.94
2023-02-21T17:07:54.302Z,18.70
2023-02-21T17:10:21.813Z,18.51
2023-02-21T17:12:50.065Z,18.46
2023-02-21T17:15:16.866Z,19.08
2023-02-21T17:17:50.905Z,19.03
2023-02-21T17:20:20.220Z,18.79
2023-02-21T17:22:48.453Z,18.27
2023-02-21T17:25:16.442Z,18.09
2023-02-21T17:27:44.898Z,18.29
2023-02-21T17:30:13.458Z,18.74
2023-02-21T17:32:40.376Z,18.54
2023-02-21T17:35:07.776Z,19.08
2023-02-21T17:37:34.545Z,18.87
2023-02-21T17:40:01.828Z,18.86
2023-02-21T17:42:28.531Z,18.90
2023-02-21T17:44:56.229Z,18.89
2023-02-21T17:47:23.712Z,18.76
2023-02-21T17:49:54.539Z,18.81
2023-02-21T17:52:22.074Z,18.84
2023-02-21T17:54:48.830Z,18.54
2023-02-21T17:57:15.806Z,18.76
2023-02-21T17:59:42.660Z,19.01
2023-02-21T18:02:09.441Z,19.03
2023-02-21T18:04:36.790Z,18.94
2023-02-21T18:07:03.870Z,18.83
2023-02-21T18:09:31.435Z,18.68
2023-02-21T18:11:59.383Z,18.34
2023-02-21T18:14:30.176Z,17.59
2023-02-21T18:16:58.264Z,17.28
2023-02-21T18:19:25.542Z,17.07
2023-02-21T18:21:52.746Z,16.85
2023-02-21T18:24:22.975Z,16.85
2023-02-21T18:26:50.020Z,16.79
2023-02-21T18:29:17.096Z,16.74
2023-02-21T18:31:43.975Z,17.10
2023-02-21T18:34:10.680Z,17.07
2023-02-21T18:36:41.043Z,17.27
2023-02-21T18:39:07.859Z,17.26
2023-02-21T18:41:35.670Z,17.38
2023-02-21T18:44:02.571Z,17.44
2023-02-21T18:46:30.459Z,17.36
2023-02-21T18:48:57.246Z,17.36
2023-02-21T18:51:24.277Z,17.36
2023-02-21T18:53:51.194Z,17.29
2023-02-21T18:56:19.807Z,17.27
2023-02-21T18:58:49.669Z,17.18
2023-02-21T19:01:19.031Z,17.15
2023-02-21T19:03:49.460Z,16.93
2023-02-21T19:06:18.178Z,16.89
2023-02-21T19:08:50.516Z,16.68
2023-02-21T19:11:18.116Z,16.33
2023-02-21T19:13:47.468Z,15.81
2023-02-21T19:16:15.069Z,15.98
2023-02-21T19:18:41.942Z,16.24
2023-02-21T19:21:12.706Z,16.17
2023-02-21T19:23:40.936Z,16.29
2023-02-21T19:26:08.646Z,16.48
2023-02-21T19:28:37.386Z,16.32
2023-02-21T19:31:04.555Z,16.34
2023-02-21T19:33:31.257Z,16.23
2023-02-21T19:35:57.926Z,16.35
2023-02-21T19:38:24.737Z,16.33
2023-02-21T19:40:51.528Z,16.02
2023-02-21T19:43:18.564Z,16.26
2023-02-21T19:45:45.353Z,16.18
2023-02-21T19:48:12.212Z,15.40
2023-02-21T19:50:41.382Z,15.38
2023-02-21T19:53:08.133Z,15.12
2023-02-21T19:55:34.942Z,15.41
2023-02-21T19:58:06.847Z,15.59
2023-02-21T20:00:34.845Z,15.61
2023-02-21T20:03:02.228Z,15.57
2023-02-21T20:05:29.118Z,15.78
2023-02-21T20:07:55.920Z,15.90
2023-02-21T20:10:49.056Z,15.74
2023-02-21T20:13:27.317Z,15.62
2023-02-21T20:16:22.563Z,15.43
2023-02-21T20:22:55.909Z,15.38
2023-02-21T20:25:22.666Z,15.38
2023-02-21T20:27:49.553Z,15.31
2023-02-21T20:30:17.614Z,15.39
2023-02-21T20:32:44.728Z,15.52
2023-02-21T20:35:12.695Z,15.53
2023-02-21T20:37:40.092Z,15.54
2023-02-21T20:40:10.272Z,15.32
2023-02-21T20:42:37.525Z,15.13
2023-02-21T20:45:05.867Z,15.13
2023-02-21T20:47:32.658Z,15.17
2023-02-21T20:49:59.584Z,14.89
2023-02-21T20:52:26.353Z,14.28
2023-02-21T20:54:53.323Z,14.35
2023-02-21T20:57:20.077Z,14.33
2023-02-21T20:59:46.960Z,14.29
2023-02-21T21:02:14.069Z,14.49
2023-02-21T21:04:43.223Z,14.48
2023-02-21T21:07:15.406Z,14.57
2023-02-21T21:09:43.808Z,14.06
2023-02-21T21:12:14.976Z,14.15
2023-02-21T21:14:44.045Z,14.46
2023-02-21T21:17:13.818Z,14.37
2023-02-21T21:19:42.810Z,14.31
2023-02-21T21:22:12.958Z,13.90
2023-02-21T21:24:40.515Z,13.86
2023-02-21T21:27:10.212Z,14.07
2023-02-21T21:29:38.997Z,14.56
2023-02-21T21:32:06.140Z,14.13
2023-02-21T21:34:33.363Z,14.00
2023-02-21T21:37:03.983Z,14.01
2023-02-21T21:39:31.626Z,13.62
2023-02-21T21:42:05.386Z,14.13
2023-02-21T21:44:32.949Z,14.07
2023-02-21T21:47:01.127Z,14.08
2023-02-21T21:49:33.522Z,14.17
2023-02-21T21:52:01.332Z,14.06
2023-02-21T21:54:30.436Z,14.22
2023-02-21T21:56:58.970Z,13.81
2023-02-21T21:59:27.023Z,14.20
2023-02-21T22:01:57.729Z,14.20
2023-02-21T22:04:28.765Z,14.38
2023-02-21T22:06:56.845Z,14.45
2023-02-21T22:09:25.545Z,14.41
2023-02-21T22:11:52.846Z,14.19
2023-02-21T22:14:22.755Z,14.27
2023-02-21T22:16:51.367Z,14.22
2023-02-21T22:19:19.912Z,14.14
2023-02-21T22:21:47.651Z,14.08
2023-02-21T22:26:59.741Z,13.79
2023-02-21T22:29:26.631Z,13.76
2023-02-21T22:31:53.937Z,13.68
2023-02-21T22:34:23.626Z,13.48
2023-02-21T22:36:52.519Z,13.59
2023-02-21T22:39:20.477Z,13.47
2023-02-21T22:41:48.948Z,13.40
2023-02-21T22:44:16.585Z,13.50
2023-02-21T22:46:58.562Z,13.42
2023-02-21T22:49:27.278Z,13.40
2023-02-21T22:51:54.584Z,13.38
2023-02-21T22:54:21.447Z,13.26
2023-02-21T22:56:51.399Z,13.24
2023-02-21T22:59:20.736Z,13.27
2023-02-21T23:01:47.511Z,13.05
2023-02-21T23:04:26.042Z,13.16
2023-02-21T23:07:00.367Z,13.04
2023-02-21T23:09:30.244Z,12.90
2023-02-21T23:11:59.708Z,12.83
2023-02-21T23:14:27.411Z,12.00
2023-02-21T23:16:58.780Z,11.37
2023-02-21T23:19:27.712Z,11.73
2023-02-21T23:21:57.705Z,12.11
2023-02-21T23:24:24.917Z,12.19
2023-02-21T23:26:54.647Z,12.41
2023-02-21T23:29:24.215Z,12.47
2023-02-21T23:31:52.558Z,12.04
2023-02-21T23:34:19.875Z,12.20
2023-02-21T23:36:46.787Z,12.19
2023-02-21T23:39:15.236Z,11.37
2023-02-21T23:41:48.808Z,10.46
2023-02-21T23:44:16.239Z,10.51
2023-02-21T23:46:44.366Z,10.48
2023-02-21T23:49:15.602Z,11.13
2023-02-21T23:51:44.235Z,11.47
2023-02-21T23:54:13.668Z,11.78
2023-02-21T23:56:40.702Z,11.68
2023-02-21T23:59:07.890Z,11.71
